createdAt,value
2023-02-07T00:01:24.216Z,38.70
2023-02-07T00:03:52.536Z,40.38
2023-02-07T00:06:25.635Z,39.85
2023-02-07T00:08:53.936Z,40.72
2023-02-07T00:11:23.130Z,41.08
2023-02-07T00:13:56.234Z,41.55
2023-02-07T00:16:25.750Z,41.30
2023-02-07T00:18:55.539Z,43.22
2023-02-07T00:21:24.616Z,42.92
2023-02-07T00:23:53.255Z,42.85
2023-02-07T00:26:23.769Z,43.92
2023-02-07T00:28:52.784Z,43.03
2023-02-07T00:31:20.132Z,44.83
2023-02-07T00:33:49.283Z,45.05
2023-02-07T00:36:19.628Z,44.17
2023-02-07T00:38:47.746Z,46.13
2023-02-07T00:41:18.283Z,45.33
2023-02-07T00:43:47.352Z,45.33
2023-02-07T00:46:15.704Z,46.83
2023-02-07T00:48:43.649Z,46.50
2023-02-07T00:51:13.569Z,46.22
2023-02-07T00:53:41.580Z,46.15
2023-02-07T00:56:09.819Z,46.42
2023-02-07T00:58:37.907Z,46.85
2023-02-07T01:01:05.403Z,46.85
2023-02-07T01:03:33.162Z,47.55
2023-02-07T01:06:00.384Z,48.55
2023-02-07T01:08:28.131Z,49.40
2023-02-07T01:10:55.332Z,48.55
2023-02-07T01:13:22.827Z,48.08
2023-02-07T01:15:50.474Z,47.47
2023-02-07T01:18:18.102Z,49.40
2023-02-07T01:20:45.537Z,49.75
2023-02-07T01:23:14.824Z,49.25
2023-02-07T01:25:44.136Z,49.90
2023-02-07T01:28:12.458Z,49.20
2023-02-07T01:30:41.397Z,49.00
2023-02-07T01:33:09.620Z,49.75
2023-02-07T01:35:38.754Z,50.42
2023-02-07T01:38:07.902Z,50.40
2023-02-07T01:40:38.181Z,50.70
2023-02-07T01:43:05.831Z,50.92
2023-02-07T01:45:39.095Z,51.25
2023-02-07T01:48:12.013Z,49.30
2023-02-07T01:50:43.481Z,50.13
2023-02-07T01:53:14.244Z,51.13
2023-02-07T01:55:42.840Z,50.08
2023-02-07T01:58:10.572Z,51.42
2023-02-07T02:00:38.094Z,51.70
2023-02-07T02:03:05.969Z,52.35
2023-02-07T02:05:35.556Z,52.50
2023-02-07T02:08:03.535Z,52.28
2023-02-07T02:10:47.589Z,52.22
2023-02-07T02:13:37.075Z,51.65
2023-02-07T02:16:23.242Z,52.72
2023-02-07T02:19:18.769Z,51.70
2023-02-07T02:22:20.227Z,51.70
2023-02-07T02:25:15.635Z,53.22
2023-02-07T02:28:29.224Z,52.97
2023-02-07T02:31:11.945Z,53.47
2023-02-07T02:33:51.183Z,52.80
2023-02-07T02:36:21.479Z,53.50
2023-02-07T02:39:08.488Z,55.05
2023-02-07T02:41:47.115Z,55.58
2023-02-07T02:44:22.981Z,55.55
2023-02-07T02:46:53.074Z,58.28
2023-02-07T02:49:21.831Z,56.63
2023-02-07T02:51:52.671Z,56.65
2023-02-07T02:54:36.675Z,55.78
2023-02-07T02:57:04.097Z,57.38
2023-02-07T02:59:31.347Z,56.13
2023-02-07T03:02:19.773Z,56.55
2023-02-07T03:05:11.909Z,55.35
2023-02-07T03:07:50.180Z,58.13
2023-02-07T03:11:05.819Z,57.40
2023-02-07T03:14:06.673Z,57.70
2023-02-07T03:17:10.988Z,57.05
2023-02-07T03:19:45.904Z,57.97
2023-02-07T03:24:47.637Z,57.22
2023-02-07T03:27:18.628Z,56.90
2023-02-07T03:29:50.367Z,57.45
2023-02-07T03:32:19.705Z,57.28
2023-02-07T03:34:54.986Z,59.25
2023-02-07T03:37:35.432Z,58.13
2023-02-07T03:40:05.396Z,59.42
2023-02-07T03:42:46.556Z,59.75
2023-02-07T03:45:17.741Z,59.28
2023-02-07T03:47:45.530Z,60.67
2023-02-07T03:50:14.048Z,60.65
2023-02-07T03:52:41.970Z,60.28
2023-02-07T03:55:09.560Z,59.80
2023-02-07T03:57:36.954Z,59.50
2023-02-07T04:00:05.725Z,60.22
2023-02-07T04:02:33.126Z,60.53
2023-02-07T04:05:00.680Z,60.08
2023-02-07T04:07:27.941Z,62.22
2023-02-07T04:09:55.388Z,63.45
2023-02-07T04:12:22.583Z,61.13
2023-02-07T04:14:50.035Z,63.03
2023-02-07T04:17:17.281Z,63.10
2023-02-07T04:19:44.810Z,62.08
2023-02-07T04:22:12.581Z,61.13
2023-02-07T04:24:40.043Z,61.35
2023-02-07T04:27:07.329Z,62.95
2023-02-07T04:29:34.798Z,62.08
2023-02-07T04:32:03.367Z,61.65
2023-02-07T04:34:30.976Z,63.83
2023-02-07T04:36:58.724Z,61.40
2023-02-07T04:39:26.250Z,65.13
2023-02-07T04:41:53.895Z,62.60
2023-02-07T04:44:21.431Z,64.00
2023-02-07T04:46:48.740Z,62.58
2023-02-07T04:49:16.352Z,63.88
2023-02-07T04:51:43.590Z,64.72
2023-02-07T04:54:11.371Z,63.78
2023-02-07T04:56:38.569Z,62.40
2023-02-07T04:59:06.095Z,63.80
2023-02-07T05:01:34.016Z,62.45
2023-02-07T05:04:01.527Z,63.83
2023-02-07T05:06:28.831Z,62.70
2023-02-07T05:08:56.599Z,63.90
2023-02-07T05:11:23.816Z,62.20
2023-02-07T05:13:51.524Z,62.92
2023-02-07T05:16:18.742Z,63.03
2023-02-07T05:18:46.298Z,63.78
2023-02-07T05:21:13.551Z,63.47
2023-02-07T05:23:41.121Z,63.38
2023-02-07T05:26:08.520Z,63.10
2023-02-07T05:28:36.048Z,62.53
2023-02-07T05:31:03.493Z,66.03
2023-02-07T05:33:31.568Z,65.10
2023-02-07T05:36:01.847Z,63.55
2023-02-07T05:38:29.283Z,63.90
2023-02-07T05:40:57.160Z,64.10
2023-02-07T05:43:24.692Z,66.80
2023-02-07T05:45:51.996Z,66.18
2023-02-07T05:48:19.488Z,65.82
2023-02-07T05:50:46.752Z,66.82
2023-02-07T05:53:14.961Z,65.45
2023-02-07T05:55:42.282Z,65.85
2023-02-07T05:58:09.860Z,66.55
2023-02-07T06:00:37.118Z,65.40
2023-02-07T06:03:04.851Z,66.22
2023-02-07T06:05:33.194Z,64.03
2023-02-07T06:08:00.824Z,65.25
2023-02-07T06:10:28.037Z,66.43
2023-02-07T06:12:55.534Z,66.28
2023-02-07T06:15:22.799Z,65.80
2023-02-07T06:17:50.374Z,65.10
2023-02-07T06:20:17.665Z,65.55
2023-02-07T06:22:45.138Z,65.05
2023-02-07T06:25:12.336Z,64.10
2023-02-07T06:27:41.018Z,61.33
2023-02-07T06:30:09.976Z,63.38
2023-02-07T06:32:37.826Z,63.17
2023-02-07T06:35:05.620Z,62.35
2023-02-07T06:37:33.707Z,60.70
2023-02-07T06:40:00.910Z,62.22
2023-02-07T06:42:29.204Z,61.00
2023-02-07T06:44:56.819Z,60.47
2023-02-07T06:47:24.950Z,60.45
2023-02-07T06:49:52.185Z,60.97
2023-02-07T06:52:19.794Z,60.25
2023-02-07T06:54:47.000Z,61.60
2023-02-07T06:57:14.505Z,59.70
2023-02-07T06:59:41.840Z,60.80
2023-02-07T07:02:12.059Z,59.40
2023-02-07T07:04:39.339Z,59.17
2023-02-07T07:07:07.141Z,58.28
2023-02-07T07:09:34.616Z,60.08
2023-02-07T07:12:02.101Z,58.83
2023-02-07T07:14:29.347Z,56.88
2023-02-07T07:16:56.980Z,57.80
2023-02-07T07:19:24.355Z,57.85
2023-02-07T07:21:51.814Z,57.67
2023-02-07T07:24:19.312Z,57.88
2023-02-07T07:26:50.024Z,57.45
2023-02-07T07:29:19.195Z,58.63
2023-02-07T07:31:47.239Z,58.17
2023-02-07T07:34:14.863Z,56.45
2023-02-07T07:36:42.387Z,58.60
2023-02-07T07:39:10.604Z,58.17
2023-02-07T07:41:38.051Z,56.88
2023-02-07T07:44:05.485Z,57.08
2023-02-07T07:46:33.223Z,57.35
2023-02-07T07:49:00.472Z,56.60
2023-02-07T07:51:27.980Z,57.58
2023-02-07T07:53:55.309Z,55.63
2023-02-07T07:56:22.884Z,58.42
2023-02-07T07:58:50.153Z,55.80
2023-02-07T08:01:17.714Z,57.30
2023-02-07T08:03:45.025Z,56.80
2023-02-07T08:06:12.563Z,58.45
2023-02-07T08:08:40.324Z,57.33
2023-02-07T08:11:10.072Z,56.15
2023-02-07T08:13:37.917Z,58.60
2023-02-07T08:16:10.965Z,57.20
2023-02-07T08:18:38.232Z,56.08
2023-02-07T08:21:06.126Z,56.55
2023-02-07T08:23:34.007Z,56.85
2023-02-07T08:26:01.581Z,55.38
2023-02-07T08:28:29.063Z,57.20
2023-02-07T08:31:01.362Z,57.10
2023-02-07T08:33:30.444Z,56.38
2023-02-07T08:35:59.207Z,57.50
2023-02-07T08:38:26.944Z,56.83
2023-02-07T08:40:54.497Z,56.47
2023-02-07T08:43:21.755Z,57.55
2023-02-07T08:45:49.306Z,56.75
2023-02-07T08:48:16.759Z,57.00
2023-02-07T08:50:45.615Z,57.83
2023-02-07T08:53:14.070Z,57.28
2023-02-07T08:55:42.012Z,56.38
2023-02-07T08:58:09.980Z,57.05
2023-02-07T09:00:38.230Z,57.40
2023-02-07T09:03:06.244Z,56.45
2023-02-07T09:05:36.102Z,56.38
2023-02-07T09:08:03.538Z,57.85
2023-02-07T09:10:31.547Z,56.63
2023-02-07T09:12:58.840Z,58.13
2023-02-07T09:15:26.506Z,58.63
2023-02-07T09:17:53.866Z,58.63
2023-02-07T09:20:21.375Z,55.95
2023-02-07T09:23:07.345Z,61.03
2023-02-07T09:25:38.139Z,58.25
2023-02-07T09:28:05.487Z,57.47
2023-02-07T09:30:33.101Z,59.95
2023-02-07T09:33:00.399Z,58.80
2023-02-07T09:35:28.000Z,58.75
2023-02-07T09:37:55.456Z,59.55
2023-02-07T09:40:23.146Z,60.10
2023-02-07T09:43:13.747Z,60.63
2023-02-07T09:45:46.047Z,59.20
2023-02-07T09:48:22.821Z,59.17
2023-02-07T09:50:54.915Z,59.55
2023-02-07T09:53:43.651Z,58.78
2023-02-07T09:56:15.587Z,60.35
2023-02-07T09:59:09.613Z,59.42
2023-02-07T10:01:44.568Z,59.78
2023-02-07T10:04:21.660Z,60.75
2023-02-07T10:06:53.345Z,59.63
2023-02-07T10:09:32.279Z,60.70
2023-02-07T10:12:22.071Z,62.10
2023-02-07T10:15:29.544Z,59.83
2023-02-07T10:18:22.487Z,61.38
2023-02-07T10:20:49.683Z,59.58
2023-02-07T10:23:41.129Z,58.75
2023-02-07T10:26:37.985Z,58.78
2023-02-07T10:29:21.046Z,60.22
2023-02-07T10:31:52.220Z,60.72
2023-02-07T10:34:32.392Z,58.70
2023-02-07T10:37:02.079Z,58.28
2023-02-07T10:39:37.149Z,59.58
2023-02-07T10:42:04.520Z,58.95
2023-02-07T10:44:32.239Z,58.90
2023-02-07T10:47:02.600Z,56.88
2023-02-07T10:49:33.445Z,59.25
2023-02-07T10:52:44.693Z,57.30
2023-02-07T10:55:17.103Z,58.58
2023-02-07T10:57:59.707Z,57.83
2023-02-07T11:00:31.443Z,56.97
2023-02-07T11:03:04.567Z,57.55
2023-02-07T11:05:38.530Z,58.58
2023-02-07T11:08:14.943Z,56.60
2023-02-07T11:10:44.489Z,57.85
2023-02-07T11:13:24.246Z,55.90
2023-02-07T11:16:07.234Z,57.13
2023-02-07T11:18:43.491Z,56.28
2023-02-07T11:21:40.410Z,56.22
2023-02-07T11:24:19.300Z,56.85
2023-02-07T11:27:13.521Z,57.03
2023-02-07T11:30:04.733Z,56.22
2023-02-07T11:32:32.446Z,56.05
2023-02-07T11:35:05.777Z,55.03
2023-02-07T11:37:35.517Z,54.83
2023-02-07T11:40:27.910Z,53.83
2023-02-07T11:43:00.883Z,54.38
2023-02-07T11:45:29.242Z,55.35
2023-02-07T11:47:58.029Z,54.72
2023-02-07T11:50:30.858Z,53.63
2023-02-07T11:53:00.607Z,53.80
2023-02-07T11:55:45.830Z,52.78
2023-02-07T11:58:37.022Z,54.40
2023-02-07T12:01:06.966Z,53.28
2023-02-07T12:03:58.656Z,53.90
2023-02-07T12:06:31.036Z,52.63
2023-02-07T12:09:00.119Z,52.40
2023-02-07T12:11:36.212Z,52.10
2023-02-07T12:14:16.755Z,51.35
2023-02-07T12:16:56.242Z,49.97
2023-02-07T12:19:39.523Z,49.63
2023-02-07T12:22:21.211Z,50.97
2023-02-07T12:24:56.755Z,50.17
2023-02-07T12:27:35.639Z,49.80
2023-02-07T12:30:03.724Z,48.92
2023-02-07T12:32:46.993Z,48.25
2023-02-07T12:35:33.782Z,47.95
2023-02-07T12:38:27.537Z,48.00
2023-02-07T12:41:00.493Z,46.63
2023-02-07T12:43:32.864Z,46.95
2023-02-07T12:46:01.439Z,47.70
2023-02-07T12:48:55.124Z,45.90
2023-02-07T12:51:29.743Z,44.35
2023-02-07T12:54:30.633Z,46.35
2023-02-07T12:57:12.476Z,44.45
2023-02-07T13:00:05.458Z,45.63
2023-02-07T13:02:47.935Z,43.42
2023-02-07T13:05:55.679Z,42.80
2023-02-07T13:08:29.259Z,42.90
2023-02-07T13:11:37.298Z,42.20
2023-02-07T13:14:32.403Z,41.75
2023-02-07T13:17:32.730Z,40.58
2023-02-07T13:20:28.345Z,39.85
2023-02-07T13:23:01.039Z,40.28
2023-02-07T13:25:37.209Z,39.50
2023-02-07T13:28:26.423Z,38.70
2023-02-07T13:30:54.868Z,39.10
2023-02-07T13:33:25.926Z,37.45
2023-02-07T13:35:56.789Z,39.33
2023-02-07T13:39:09.016Z,36.63
2023-02-07T13:41:51.639Z,36.88
2023-02-07T13:44:31.178Z,36.40
2023-02-07T13:47:29.816Z,35.35
2023-02-07T13:50:16.480Z,36.47
2023-02-07T13:52:55.947Z,34.45
2023-02-07T13:55:41.889Z,33.47
2023-02-07T13:58:53.395Z,33.03
2023-02-07T14:01:22.295Z,32.42
2023-02-07T14:04:11.429Z,32.45
2023-02-07T14:06:42.419Z,33.50
2023-02-07T14:09:09.868Z,31.73
2023-02-07T14:11:43.989Z,31.85
2023-02-07T14:14:27.879Z,31.85
2023-02-07T14:17:00.931Z,30.55
2023-02-07T14:19:40.590Z,29.70
2023-02-07T14:22:15.420Z,29.67
2023-02-07T14:25:19.582Z,29.50
2023-02-07T14:27:52.683Z,28.63
2023-02-07T14:30:56.108Z,28.92
2023-02-07T14:33:32.933Z,29.77
2023-02-07T14:36:16.838Z,29.25
2023-02-07T14:39:01.788Z,27.52
2023-02-07T14:41:36.070Z,27.85
2023-02-07T14:44:09.857Z,28.13
2023-02-07T14:46:46.794Z,26.70
2023-02-07T14:49:21.816Z,26.35
2023-02-07T14:52:02.428Z,27.02
2023-02-07T14:55:02.639Z,25.55
2023-02-07T14:57:48.721Z,25.48
2023-02-07T15:00:23.002Z,25.23
2023-02-07T15:02:54.827Z,24.98
2023-02-07T15:05:24.539Z,26.38
2023-02-07T15:08:04.015Z,25.20
2023-02-07T15:10:34.780Z,24.65
2023-02-07T15:13:05.831Z,25.25
2023-02-07T15:15:48.376Z,23.83
2023-02-07T15:18:18.605Z,24.58
2023-02-07T15:20:58.599Z,24.13
2023-02-07T15:23:28.433Z,23.60
2023-02-07T15:25:56.777Z,24.17
2023-02-07T15:28:27.904Z,22.42
2023-02-07T15:31:26.519Z,22.05
2023-02-07T15:33:57.745Z,22.67
2023-02-07T15:36:36.620Z,22.60
2023-02-07T15:39:15.037Z,21.85
2023-02-07T15:41:45.455Z,23.90
2023-02-07T15:44:23.141Z,22.75
2023-02-07T15:46:57.559Z,22.08
2023-02-07T15:49:41.691Z,21.27
2023-02-07T15:52:28.346Z,22.08
2023-02-07T15:54:57.633Z,21.23
2023-02-07T15:57:34.947Z,20.90
2023-02-07T16:00:17.231Z,20.90
2023-02-07T16:02:52.653Z,20.73
2023-02-07T16:05:26.395Z,20.42
2023-02-07T16:07:54.175Z,20.13
2023-02-07T16:10:24.757Z,20.25
2023-02-07T16:12:59.116Z,20.17
2023-02-07T16:15:33.238Z,20.00
2023-02-07T16:18:03.833Z,19.90
2023-02-07T16:20:36.066Z,19.50
2023-02-07T16:23:07.065Z,19.10
2023-02-07T16:25:36.064Z,19.13
2023-02-07T16:28:10.025Z,19.73
2023-02-07T16:30:39.288Z,19.13
2023-02-07T16:33:08.029Z,18.70
2023-02-07T16:35:35.528Z,18.77
2023-02-07T16:38:02.933Z,18.30
2023-02-07T16:40:30.724Z,18.05
2023-02-07T16:42:58.493Z,18.08
2023-02-07T16:45:28.649Z,17.42
2023-02-07T16:47:57.747Z,17.52
2023-02-07T16:50:30.465Z,16.73
2023-02-07T16:52:58.094Z,16.85
2023-02-07T16:55:27.592Z,17.73
2023-02-07T16:57:56.981Z,17.65
2023-02-07T17:00:26.486Z,17.35
2023-02-07T17:02:54.073Z,17.95
2023-02-07T17:05:22.608Z,16.98
2023-02-07T17:07:50.627Z,16.95
2023-02-07T17:10:25.846Z,15.93
2023-02-07T17:12:54.049Z,16.83
2023-02-07T17:15:22.247Z,16.80
2023-02-07T17:17:50.541Z,16.25
2023-02-07T17:20:21.395Z,16.92
2023-02-07T17:22:48.859Z,17.08
2023-02-07T17:25:17.892Z,15.95
2023-02-07T17:27:45.091Z,15.25
2023-02-07T17:30:38.368Z,15.85
2023-02-07T17:33:06.633Z,15.60
2023-02-07T17:35:34.983Z,17.25
2023-02-07T17:38:02.720Z,15.95
2023-02-07T17:40:33.988Z,16.20
2023-02-07T17:43:01.648Z,14.90
2023-02-07T17:45:32.870Z,15.85
2023-02-07T17:48:00.384Z,15.82
2023-02-07T17:50:41.179Z,14.98
2023-02-07T17:53:09.967Z,15.85
2023-02-07T17:55:38.175Z,15.77
2023-02-07T17:58:06.519Z,15.68
2023-02-07T18:00:37.442Z,15.10
2023-02-07T18:03:06.652Z,15.23
2023-02-07T18:05:34.593Z,15.07
2023-02-07T18:08:02.525Z,14.43
2023-02-07T18:10:32.975Z,14.85
2023-02-07T18:13:00.686Z,14.38
2023-02-07T18:15:30.041Z,14.73
2023-02-07T18:17:58.545Z,14.23
2023-02-07T18:20:29.137Z,14.80
2023-02-07T18:22:58.116Z,15.13
2023-02-07T18:25:28.338Z,15.48
2023-02-07T18:27:56.483Z,14.48
2023-02-07T18:30:26.431Z,14.20
2023-02-07T18:32:53.848Z,14.10
2023-02-07T18:35:21.564Z,14.10
2023-02-07T18:37:48.952Z,14.38
2023-02-07T18:40:16.453Z,13.82
2023-02-07T18:42:43.794Z,14.05
2023-02-07T18:45:13.663Z,14.52
2023-02-07T18:47:42.025Z,14.27
2023-02-07T18:50:11.967Z,14.57
2023-02-07T18:52:39.908Z,13.32
2023-02-07T18:55:08.041Z,14.57
2023-02-07T18:57:35.309Z,14.65
2023-02-07T19:00:06.183Z,14.07
2023-02-07T19:02:33.717Z,14.20
2023-02-07T19:05:01.615Z,14.48
2023-02-07T19:07:29.590Z,13.40
2023-02-07T19:09:57.247Z,13.57
2023-02-07T19:12:24.466Z,13.95
2023-02-07T19:14:51.931Z,13.13
2023-02-07T19:17:20.047Z,13.40
2023-02-07T19:19:47.527Z,13.43
2023-02-07T19:22:17.890Z,13.10
2023-02-07T19:24:49.196Z,13.73
2023-02-07T19:27:16.455Z,13.60
2023-02-07T19:29:44.622Z,14.35
2023-02-07T19:32:11.883Z,13.35
2023-02-07T19:34:39.483Z,13.82
2023-02-07T19:37:06.825Z,14.38
2023-02-07T19:39:34.498Z,13.85
2023-02-07T19:42:01.735Z,13.88
2023-02-07T19:44:29.338Z,13.38
2023-02-07T19:46:57.297Z,13.20
2023-02-07T19:49:24.945Z,13.15
2023-02-07T19:51:52.267Z,13.85
2023-02-07T19:54:19.756Z,13.25
2023-02-07T19:56:49.653Z,12.80
2023-02-07T19:59:18.740Z,13.60
2023-02-07T20:01:46.033Z,13.13
2023-02-07T20:04:13.649Z,13.93
2023-02-07T20:06:41.126Z,14.02
2023-02-07T20:09:09.028Z,13.25
2023-02-07T20:11:36.353Z,13.82
2023-02-07T20:14:04.156Z,13.75
2023-02-07T20:16:37.256Z,13.30
2023-02-07T20:19:07.025Z,13.00
2023-02-07T20:21:35.710Z,13.73
2023-02-07T20:24:03.910Z,13.15
2023-02-07T20:26:39.432Z,13.05
2023-02-07T20:29:10.735Z,13.40
2023-02-07T20:31:38.988Z,13.88
2023-02-07T20:34:06.922Z,14.00
2023-02-07T20:36:40.825Z,13.60
2023-02-07T20:39:12.667Z,14.20
2023-02-07T20:41:41.637Z,13.20
2023-02-07T20:44:14.290Z,13.73
2023-02-07T20:46:43.692Z,14.30
2023-02-07T20:49:14.503Z,13.77
2023-02-07T20:51:43.824Z,13.45
2023-02-07T20:54:12.493Z,13.73
2023-02-07T20:56:40.063Z,13.90
2023-02-07T20:59:08.614Z,14.20
2023-02-07T21:01:36.597Z,13.43
2023-02-07T21:04:05.426Z,14.15
2023-02-07T21:06:35.098Z,14.35
2023-02-07T21:09:07.231Z,14.10
2023-02-07T21:11:45.211Z,14.27
2023-02-07T21:14:22.585Z,14.13
2023-02-07T21:16:49.973Z,14.38
2023-02-07T21:19:20.100Z,14.15
2023-02-07T21:21:50.706Z,14.45
2023-02-07T21:24:19.217Z,14.60
2023-02-07T21:26:51.433Z,14.10
2023-02-07T21:29:20.618Z,14.20
2023-02-07T21:31:48.873Z,13.85
2023-02-07T21:34:17.871Z,13.55
2023-02-07T21:36:45.181Z,14.90
2023-02-07T21:39:12.912Z,14.68
2023-02-07T21:41:42.716Z,14.52
2023-02-07T21:44:11.865Z,14.98
2023-02-07T21:46:41.267Z,14.48
2023-02-07T21:49:14.637Z,13.60
2023-02-07T21:51:44.832Z,14.77
2023-02-07T21:54:12.343Z,14.68
2023-02-07T21:56:41.954Z,14.52
2023-02-07T21:59:17.910Z,14.55
2023-02-07T22:01:47.309Z,15.80
2023-02-07T22:04:15.270Z,14.23
2023-02-07T22:06:44.527Z,14.90
2023-02-07T22:09:14.882Z,15.18
2023-02-07T22:11:42.941Z,15.10
2023-02-07T22:14:14.162Z,16.27
2023-02-07T22:16:41.837Z,14.80
2023-02-07T22:19:14.171Z,14.55
2023-02-07T22:21:41.499Z,14.60
2023-02-07T22:24:12.088Z,14.80
2023-02-07T22:26:39.484Z,14.70
2023-02-07T22:29:08.484Z,13.98
2023-02-07T22:31:38.438Z,15.45
2023-02-07T22:34:08.694Z,14.68
2023-02-07T22:36:39.125Z,14.13
2023-02-07T22:39:08.629Z,15.50
2023-02-07T22:41:36.384Z,14.50
2023-02-07T22:44:04.762Z,14.88
2023-02-07T22:46:32.055Z,14.65
2023-02-07T22:48:59.868Z,15.48
2023-02-07T22:51:30.673Z,14.90
2023-02-07T22:54:05.431Z,14.75
2023-02-07T22:56:35.288Z,15.32
2023-02-07T22:59:03.080Z,17.15
2023-02-07T23:01:34.456Z,15.90
2023-02-07T23:04:04.471Z,14.95
2023-02-07T23:06:35.062Z,16.23
2023-02-07T23:09:05.108Z,15.48
2023-02-07T23:11:32.664Z,15.88
2023-02-07T23:14:00.229Z,15.95
2023-02-07T23:16:29.337Z,15.00
2023-02-07T23:19:01.743Z,15.60
2023-02-07T23:21:29.183Z,15.50
2023-02-07T23:24:00.066Z,15.85
2023-02-07T23:26:27.587Z,15.07
2023-02-07T23:28:55.510Z,15.07
2023-02-07T23:31:24.293Z,15.60
2023-02-07T23:33:52.890Z,16.10
2023-02-07T23:36:20.935Z,15.38
2023-02-07T23:38:49.487Z,16.17
2023-02-07T23:41:17.611Z,16.42
2023-02-07T23:43:46.577Z,15.60
2023-02-07T23:46:15.679Z,16.23
2023-02-07T23:48:43.440Z,15.50
2023-02-07T23:51:12.167Z,16.35
2023-02-07T23:53:39.741Z,15.60
2023-02-07T23:56:07.027Z,16.33
2023-02-07T23:58:35.404Z,17.17
